Argusville, North Dakota
Current Conditions -  °F | °C
As of 6:53 AM on Wednesday 26 Nov 2014 (Local Time) from KFAR Reporting Station
Haze Haze  
Wind Chill: -26°   Ceiling: 700
Heat Index: -16°   Visibility: 3mi
Dew Point: -18°   Wind: 15mph
Humidity: 80%   Direction: 350°N
Pressure: 30.29"   Gusts: NA
Location:  47.05°N, 96.93°W
Report Text: KFAR 261253Z 35013KT 3SM HZ OVC007 M16/M18 A3029 RMK AO2 CIG 004V010 SLP277 T11561183
Loading
Personal Weather Stations






























Interactive Weather Map New forecast layout! Learn more

10-Day Weather Forecast

Advertisements
Track Severe Weather on mobile